Time;durP1;ratioP1;P1;durP2;ratioP2;P2;SDS_P1;SDS_P2;PMS_P1;PMS_P2;Temp;Humidity;BMP_temperature;BMP_pressure;BME280_temperature;BME280_humidity;BME280_pressure;Samples;Min_cycle;Max_cycle;Signal;HPM_P1;HPM_P2
2023/11/19 00:01:22;;;;;;;2.25;1.20;;;;;;;;;;4991908;28;20022;-69
2023/11/19 00:03:48;;;;;;;3.83;0.60;;;;;;;;;;4992079;28;20077;-69
2023/11/19 00:06:13;;;;;;;2.97;0.95;;;;;;;;;;4979292;28;20293;-69
2023/11/19 00:08:38;;;;;;;4.73;2.57;;;;;;;;;;4985899;28;20033;-69
2023/11/19 00:11:04;;;;;;;3.53;1.97;;;;;;;;;;4991571;28;20258;-69
2023/11/19 00:13:29;;;;;;;5.47;0.82;;;;;;;;;;4991801;28;20748;-69
2023/11/19 00:15:54;;;;;;;4.37;1.20;;;;;;;;;;4991392;28;20038;-68
2023/11/19 00:18:19;;;;;;;4.47;1.77;;;;;;;;;;4991068;28;20341;-69
2023/11/19 00:20:44;;;;;;;2.88;2.05;;;;;;;;;;4976640;28;20102;-69
2023/11/19 00:23:10;;;;;;;4.80;2.55;;;;;;;;;;4990344;28;20019;-70
2023/11/19 00:25:35;;;;;;;1.55;1.13;;;;;;;;;;4991612;28;20026;-69
2023/11/19 00:28:00;;;;;;;1.65;0.50;;;;;;;;;;4991202;28;20187;-69
2023/11/19 00:30:25;;;;;;;1.60;0.77;;;;;;;;;;4991213;28;20074;-69
2023/11/19 00:32:50;;;;;;;1.13;0.70;;;;;;;;;;4988364;28;20273;-69
2023/11/19 00:35:16;;;;;;;1.02;0.75;;;;;;;;;;4977266;28;20308;-69
2023/11/19 00:37:42;;;;;;;2.05;0.50;;;;;;;;;;4989045;28;20149;-69
2023/11/19 00:40:07;;;;;;;0.35;0.32;;;;;;;;;;4990154;28;20441;-68
2023/11/19 00:42:33;;;;;;;1.48;0.52;;;;;;;;;;4991044;28;20034;-69
2023/11/19 00:44:58;;;;;;;1.35;0.60;;;;;;;;;;4991125;28;20054;-70
2023/11/19 00:47:23;;;;;;;0.82;0.65;;;;;;;;;;4985228;28;20056;-70
2023/11/19 00:49:48;;;;;;;1.80;0.63;;;;;;;;;;4976865;28;20019;-69
2023/11/19 00:52:14;;;;;;;2.08;0.90;;;;;;;;;;4990890;28;20944;-68
2023/11/19 00:54:40;;;;;;;0.93;0.50;;;;;;;;;;4991051;28;20025;-68
2023/11/19 00:57:05;;;;;;;1.67;0.70;;;;;;;;;;4990566;28;20064;-69
2023/11/19 00:59:31;;;;;;;3.13;0.60;;;;;;;;;;4990425;28;20382;-69
2023/11/19 01:01:56;;;;;;;1.17;0.60;;;;;;;;;;4980820;28;20025;-68
2023/11/19 01:04:21;;;;;;;9.43;1.38;;;;;;;;;;4978065;28;20027;-69
2023/11/19 01:06:46;;;;;;;2.38;0.93;;;;;;;;;;4982920;28;20019;-69
2023/11/19 01:09:12;;;;;;;3.35;1.17;;;;;;;;;;4989798;28;20050;-69
2023/11/19 01:11:37;;;;;;;3.40;1.00;;;;;;;;;;4990274;28;20046;-69
2023/11/19 01:14:02;;;;;;;2.42;1.08;;;;;;;;;;4990403;28;20250;-68
2023/11/19 01:16:27;;;;;;;3.97;0.90;;;;;;;;;;4981951;28;20465;-69
2023/11/19 01:18:52;;;;;;;1.80;0.77;;;;;;;;;;4979874;28;20530;-69
2023/11/19 01:21:18;;;;;;;1.40;0.70;;;;;;;;;;4979455;28;20037;-69
2023/11/19 01:23:43;;;;;;;1.00;0.60;;;;;;;;;;4975696;28;20019;-69
2023/11/19 01:26:10;;;;;;;0.63;0.50;;;;;;;;;;4988571;28;20054;-68
2023/11/19 01:28:35;;;;;;;5.38;1.02;;;;;;;;;;4989897;28;20323;-68
2023/11/19 01:31:00;;;;;;;5.97;1.35;;;;;;;;;;4978036;28;20585;-69
2023/11/19 01:33:25;;;;;;;5.97;1.47;;;;;;;;;;4984672;28;20034;-68
2023/11/19 01:35:50;;;;;;;0.57;0.27;;;;;;;;;;4990490;28;20280;-69
2023/11/19 01:38:16;;;;;;;4.20;0.88;;;;;;;;;;4989694;28;20315;-69
2023/11/19 01:40:41;;;;;;;3.90;1.00;;;;;;;;;;4989886;28;20069;-68
2023/11/19 01:43:06;;;;;;;3.17;1.13;;;;;;;;;;4978106;28;20301;-69
2023/11/19 01:45:32;;;;;;;2.60;0.85;;;;;;;;;;4984760;28;20771;-69
2023/11/19 01:47:58;;;;;;;2.25;0.70;;;;;;;;;;4989461;28;20036;-69
2023/11/19 01:50:27;;;;;;;0.85;0.47;;;;;;;;;;4989678;28;20029;-69
2023/11/19 01:52:52;;;;;;;1.55;0.80;;;;;;;;;;4990083;28;20022;-69
2023/11/19 01:55:18;;;;;;;4.95;1.10;;;;;;;;;;4988216;28;20022;-70
2023/11/19 01:57:44;;;;;;;1.95;0.77;;;;;;;;;;4977143;28;20048;-69
2023/11/19 02:00:13;;;;;;;6.97;0.90;;;;;;;;;;4987847;28;20019;-68
2023/11/19 02:02:39;;;;;;;5.35;0.50;;;;;;;;;;4989847;28;20025;-69
2023/11/19 02:05:05;;;;;;;2.45;1.10;;;;;;;;;;4989776;28;20061;-69
2023/11/19 02:07:30;;;;;;;0.93;0.60;;;;;;;;;;4990032;28;20026;-70
2023/11/19 02:09:59;;;;;;;2.97;0.88;;;;;;;;;;4983610;28;20110;-69
2023/11/19 02:12:24;;;;;;;1.75;0.80;;;;;;;;;;4979881;28;20470;-69
2023/11/19 02:14:49;;;;;;;5.90;1.00;;;;;;;;;;4987045;28;20049;-69
2023/11/19 02:17:34;;;;;;;8.23;1.30;;;;;;;;;;4989801;28;20493;-69
2023/11/19 02:19:59;;;;;;;3.80;1.33;;;;;;;;;;4988472;28;20287;-69
2023/11/19 02:22:24;;;;;;;2.83;1.20;;;;;;;;;;4977866;28;20097;-69
2023/11/19 02:24:51;;;;;;;2.17;0.98;;;;;;;;;;4985961;28;20023;-69
2023/11/19 02:27:26;;;;;;;4.95;1.20;;;;;;;;;;4989376;28;20072;-68
2023/11/19 02:29:51;;;;;;;6.82;1.63;;;;;;;;;;4989067;28;20081;-69
2023/11/19 02:32:16;;;;;;;3.10;1.60;;;;;;;;;;4989827;28;20022;-70
2023/11/19 02:34:42;;;;;;;7.53;1.75;;;;;;;;;;4986039;28;20037;-69
2023/11/19 02:37:08;;;;;;;7.67;2.20;;;;;;;;;;4979223;28;20038;-69
2023/11/19 02:39:33;;;;;;;3.65;1.52;;;;;;;;;;4988182;28;20293;-69
2023/11/19 02:41:58;;;;;;;10.53;1.77;;;;;;;;;;4988966;28;20026;-69
2023/11/19 02:44:23;;;;;;;3.83;1.57;;;;;;;;;;4989403;28;20266;-69
2023/11/19 02:46:48;;;;;;;2.35;1.50;;;;;;;;;;4989763;28;20640;-69
2023/11/19 02:49:15;;;;;;;4.53;1.37;;;;;;;;;;4983784;28;20042;-69
2023/11/19 02:51:40;;;;;;;1.80;1.02;;;;;;;;;;4980005;28;20254;-69
2023/11/19 02:54:05;;;;;;;7.73;1.10;;;;;;;;;;4991632;28;20085;-69
2023/11/19 02:56:34;;;;;;;0.45;0.43;;;;;;;;;;4993421;28;20345;-68
2023/11/19 02:59:03;;;;;;;6.00;0.75;;;;;;;;;;4992940;28;20069;-69
2023/11/19 03:01:33;;;;;;;4.30;1.13;;;;;;;;;;4993222;28;20105;-70
2023/11/19 03:04:01;;;;;;;3.80;1.20;;;;;;;;;;4985517;28;20354;-70
2023/11/19 03:06:27;;;;;;;8.88;1.05;;;;;;;;;;4989185;28;20467;-69
2023/11/19 03:08:52;;;;;;;6.45;0.90;;;;;;;;;;4992778;28;20026;-70
2023/11/19 03:11:17;;;;;;;7.65;1.13;;;;;;;;;;4991635;28;20098;-68
2023/11/19 03:13:42;;;;;;;7.00;0.98;;;;;;;;;;4992438;28;20046;-69
2023/11/19 03:16:08;;;;;;;0.67;0.43;;;;;;;;;;4992221;28;20053;-69
2023/11/19 03:18:33;;;;;;;4.57;1.50;;;;;;;;;;4983647;28;20693;-68
2023/11/19 03:20:58;;;;;;;5.57;1.30;;;;;;;;;;4981516;28;20053;-69
2023/11/19 03:23:24;;;;;;;5.05;1.10;;;;;;;;;;4986518;28;20808;-69
2023/11/19 03:25:49;;;;;;;5.55;1.25;;;;;;;;;;4992622;28;20018;-69
2023/11/19 03:28:14;;;;;;;5.78;1.13;;;;;;;;;;4991750;28;20712;-69
2023/11/19 03:30:39;;;;;;;3.60;1.58;;;;;;;;;;4991090;28;20023;-69
2023/11/19 03:36:09;;;;;;;18.70;1.52;;;;;;;;;;4987931;28;20273;-69
2023/11/19 03:38:34;;;;;;;6.28;1.77;;;;;;;;;;4992017;28;20022;-69
2023/11/19 03:40:59;;;;;;;7.73;1.23;;;;;;;;;;4991640;28;20129;-69
2023/11/19 03:43:24;;;;;;;12.43;1.73;;;;;;;;;;4992370;28;20698;-69
2023/11/19 03:45:49;;;;;;;7.60;1.88;;;;;;;;;;4988614;28;20372;-69
2023/11/19 03:48:18;;;;;;;8.93;1.42;;;;;;;;;;4982829;28;20054;-70
2023/11/19 03:50:44;;;;;;;28.88;2.72;;;;;;;;;;4983970;28;20014;-68
2023/11/19 03:53:09;;;;;;;13.95;2.00;;;;;;;;;;4992053;28;20023;-70
2023/11/19 03:55:34;;;;;;;5.85;1.70;;;;;;;;;;4990538;28;20378;-68
2023/11/19 03:57:59;;;;;;;10.20;1.90;;;;;;;;;;4980524;28;20062;-70
2023/11/19 04:00:24;;;;;;;13.88;1.85;;;;;;;;;;4984288;28;20030;-68
2023/11/19 04:02:49;;;;;;;22.27;1.57;;;;;;;;;;4991287;28;20070;-69
2023/11/19 04:05:15;;;;;;;6.90;1.80;;;;;;;;;;4989447;28;20117;-69
2023/11/19 04:07:40;;;;;;;11.70;2.53;;;;;;;;;;4982028;28;20274;-70
2023/11/19 04:10:05;;;;;;;8.97;2.03;;;;;;;;;;4982014;28;20375;-69
2023/11/19 04:12:30;;;;;;;15.10;1.95;;;;;;;;;;4991683;28;20272;-69
2023/11/19 04:14:56;;;;;;;13.95;2.58;;;;;;;;;;4991698;28;20093;-69
2023/11/19 04:17:21;;;;;;;13.20;2.70;;;;;;;;;;4983868;28;20497;-69
2023/11/19 04:19:46;;;;;;;18.45;1.83;;;;;;;;;;4987205;28;20057;-69
2023/11/19 04:22:11;;;;;;;13.03;2.57;;;;;;;;;;4991268;28;20018;-70
2023/11/19 04:24:37;;;;;;;10.23;1.60;;;;;;;;;;4991130;28;20254;-69
2023/11/19 04:27:03;;;;;;;25.85;2.78;;;;;;;;;;4983082;28;20327;-69
2023/11/19 04:29:30;;;;;;;13.13;2.10;;;;;;;;;;4987458;28;20041;-69
2023/11/19 04:31:55;;;;;;;14.88;3.13;;;;;;;;;;4990856;28;20027;-69
2023/11/19 04:34:20;;;;;;;17.17;2.50;;;;;;;;;;4991340;28;20424;-69
2023/11/19 04:36:46;;;;;;;9.87;2.30;;;;;;;;;;4985940;28;20335;-69
2023/11/19 04:39:14;;;;;;;24.80;2.43;;;;;;;;;;4983003;28;20262;-69
2023/11/19 04:41:47;;;;;;;8.00;2.30;;;;;;;;;;4990907;28;21053;-69
2023/11/19 04:44:12;;;;;;;12.60;2.03;;;;;;;;;;4990644;28;20025;-69
2023/11/19 04:46:37;;;;;;;24.27;2.70;;;;;;;;;;4986206;28;20026;-68
2023/11/19 04:49:02;;;;;;;14.98;3.08;;;;;;;;;;4985708;28;20802;-69
2023/11/19 04:51:27;;;;;;;22.73;3.13;;;;;;;;;;4990924;28;20030;-68
2023/11/19 04:53:52;;;;;;;25.25;3.08;;;;;;;;;;4991072;28;20046;-69
2023/11/19 04:56:19;;;;;;;17.50;2.53;;;;;;;;;;4987398;28;20101;-68
2023/11/19 04:58:44;;;;;;;36.30;5.10;;;;;;;;;;4986010;28;20101;-69
2023/11/19 05:01:13;;;;;;;23.40;4.05;;;;;;;;;;4990773;28;20156;-69
2023/11/19 05:03:38;;;;;;;29.48;4.15;;;;;;;;;;4986200;28;20022;-69
2023/11/19 05:06:04;;;;;;;26.63;3.85;;;;;;;;;;4985589;28;20026;-69
2023/11/19 05:08:29;;;;;;;21.17;3.72;;;;;;;;;;4990148;28;20018;-69
2023/11/19 05:10:54;;;;;;;26.38;4.22;;;;;;;;;;4990166;28;20580;-69
2023/11/19 05:13:19;;;;;;;26.43;4.07;;;;;;;;;;4987324;28;20105;-69
2023/11/19 05:15:44;;;;;;;20.10;4.35;;;;;;;;;;4982361;28;20285;-69
2023/11/19 05:18:10;;;;;;;22.30;2.97;;;;;;;;;;4988044;28;20080;-69
2023/11/19 05:20:35;;;;;;;25.77;3.42;;;;;;;;;;4989795;28;20776;-69
2023/11/19 05:23:00;;;;;;;20.85;2.67;;;;;;;;;;4990106;28;20528;-69
2023/11/19 05:25:26;;;;;;;17.98;2.90;;;;;;;;;;4990573;28;20017;-69
2023/11/19 05:27:51;;;;;;;23.85;3.33;;;;;;;;;;4989409;28;20437;-68
2023/11/19 05:30:17;;;;;;;17.98;2.92;;;;;;;;;;4989806;28;20613;-69
2023/11/19 05:32:43;;;;;;;9.83;1.17;;;;;;;;;;4988000;28;20034;-69
2023/11/19 05:35:08;;;;;;;20.05;3.78;;;;;;;;;;4988198;28;20810;-69
2023/11/19 05:37:34;;;;;;;32.37;3.37;;;;;;;;;;4986533;28;20150;-69
2023/11/19 05:40:00;;;;;;;26.15;3.90;;;;;;;;;;4988985;28;20285;-69
2023/11/19 05:42:27;;;;;;;26.50;2.75;;;;;;;;;;4990069;28;20030;-69
2023/11/19 05:44:52;;;;;;;10.68;2.50;;;;;;;;;;4989659;28;20014;-69
2023/11/19 05:47:17;;;;;;;28.98;3.42;;;;;;;;;;4989652;28;20014;-69
2023/11/19 05:49:43;;;;;;;22.10;2.80;;;;;;;;;;4988720;28;20018;-69
2023/11/19 05:52:10;;;;;;;25.75;3.33;;;;;;;;;;4989837;28;20716;-69
2023/11/19 05:54:37;;;;;;;22.45;3.92;;;;;;;;;;4988953;28;20485;-68
2023/11/19 05:57:04;;;;;;;27.45;4.72;;;;;;;;;;4988840;28;20046;-68
2023/11/19 05:59:29;;;;;;;24.77;5.32;;;;;;;;;;4988782;28;20030;-69
2023/11/19 06:01:55;;;;;;;23.60;3.95;;;;;;;;;;4988996;28;20022;-68
2023/11/19 06:04:20;;;;;;;21.37;2.90;;;;;;;;;;4988594;28;20018;-68
2023/11/19 06:06:45;;;;;;;27.83;3.53;;;;;;;;;;4983781;28;20883;-69
2023/11/19 06:09:12;;;;;;;20.60;4.47;;;;;;;;;;4988070;28;20041;-68
2023/11/19 06:11:37;;;;;;;25.70;4.50;;;;;;;;;;4989612;28;20022;-69
2023/11/19 06:14:05;;;;;;;27.23;5.73;;;;;;;;;;4988360;28;20038;-68
2023/11/19 06:16:30;;;;;;;39.42;5.43;;;;;;;;;;4985604;28;20249;-69
2023/11/19 06:18:55;;;;;;;32.77;4.40;;;;;;;;;;4989217;28;20536;-69
2023/11/19 06:21:21;;;;;;;34.42;4.50;;;;;;;;;;4989762;28;20388;-69
2023/11/19 06:23:46;;;;;;;24.67;3.88;;;;;;;;;;4989708;28;20026;-69
2023/11/19 06:26:11;;;;;;;27.65;5.13;;;;;;;;;;4984844;28;20545;-69
2023/11/19 06:28:36;;;;;;;22.70;3.90;;;;;;;;;;4990954;28;20712;-69
2023/11/19 06:31:03;;;;;;;33.35;4.28;;;;;;;;;;4993149;28;20265;-68
2023/11/19 06:33:28;;;;;;;31.27;4.82;;;;;;;;;;4993518;28;20389;-69
2023/11/19 06:35:54;;;;;;;36.42;4.40;;;;;;;;;;4989973;28;20026;-69
2023/11/19 06:38:19;;;;;;;34.33;5.13;;;;;;;;;;4991299;28;20069;-69
2023/11/19 06:40:45;;;;;;;31.00;4.27;;;;;;;;;;4993085;28;20109;-69
2023/11/19 06:43:10;;;;;;;37.22;4.80;;;;;;;;;;4998114;28;20699;-69
2023/11/19 06:45:36;;;;;;;38.50;4.77;;;;;;;;;;4996877;28;20041;-69
2023/11/19 06:48:03;;;;;;;31.50;3.35;;;;;;;;;;4993216;28;20278;-69
2023/11/19 06:50:28;;;;;;;31.48;5.80;;;;;;;;;;4991599;28;20097;-69
2023/11/19 06:52:53;;;;;;;40.78;5.80;;;;;;;;;;4997772;28;20101;-68
2023/11/19 06:55:18;;;;;;;25.88;3.65;;;;;;;;;;4996412;28;20120;-68
2023/11/19 06:57:44;;;;;;;27.17;3.97;;;;;;;;;;4992957;28;20026;-68
2023/11/19 07:00:11;;;;;;;36.43;5.77;;;;;;;;;;4989183;28;20285;-68
2023/11/19 07:02:36;;;;;;;32.03;6.50;;;;;;;;;;4992598;28;20308;-68
2023/11/19 07:05:01;;;;;;;34.83;5.17;;;;;;;;;;4987601;28;20050;-68
2023/11/19 07:07:26;;;;;;;26.27;4.20;;;;;;;;;;4989037;28;20285;-68
2023/11/19 07:09:52;;;;;;;45.05;6.07;;;;;;;;;;4985950;28;20031;-68
2023/11/19 07:12:17;;;;;;;26.23;3.42;;;;;;;;;;4989880;28;20030;-68
2023/11/19 07:14:42;;;;;;;23.73;3.53;;;;;;;;;;4989140;28;20038;-68
2023/11/19 07:17:08;;;;;;;32.87;4.30;;;;;;;;;;4987978;28;20088;-69
2023/11/19 07:19:35;;;;;;;29.10;3.83;;;;;;;;;;4972972;28;20721;-69
2023/11/19 07:22:00;;;;;;;26.15;3.72;;;;;;;;;;4989975;28;20025;-69
2023/11/19 07:24:28;;;;;;;36.27;4.23;;;;;;;;;;4988732;28;20022;-68
2023/11/19 07:26:54;;;;;;;24.05;4.25;;;;;;;;;;4980319;28;20270;-68
2023/11/19 07:29:19;;;;;;;14.85;2.65;;;;;;;;;;4987296;28;20017;-68
2023/11/19 07:31:44;;;;;;;42.37;5.20;;;;;;;;;;4989333;28;20441;-68
2023/11/19 07:34:10;;;;;;;31.93;4.53;;;;;;;;;;4990624;28;20361;-68
2023/11/19 07:36:35;;;;;;;25.45;4.22;;;;;;;;;;4990430;28;20106;-67
2023/11/19 07:39:01;;;;;;;9.35;2.28;;;;;;;;;;4986331;28;20730;-67
2023/11/19 07:41:26;;;;;;;29.20;4.47;;;;;;;;;;4989545;28;20081;-68
2023/11/19 07:43:52;;;;;;;31.20;3.63;;;;;;;;;;4990675;28;20029;-68
2023/11/19 07:46:20;;;;;;;27.42;3.35;;;;;;;;;;4989346;28;20101;-68
2023/11/19 07:48:46;;;;;;;30.92;3.47;;;;;;;;;;4982046;28;20053;-67
2023/11/19 07:51:12;;;;;;;26.83;4.07;;;;;;;;;;4981476;28;20061;-68
2023/11/19 07:53:38;;;;;;;29.05;4.13;;;;;;;;;;4988704;28;20449;-68
2023/11/19 07:56:03;;;;;;;23.67;3.60;;;;;;;;;;4991579;28;20100;-67
2023/11/19 07:58:29;;;;;;;41.28;6.47;;;;;;;;;;4991786;28;20105;-69
2023/11/19 08:00:54;;;;;;;31.95;3.65;;;;;;;;;;4988270;28;20055;-68
2023/11/19 08:03:19;;;;;;;32.57;4.93;;;;;;;;;;4988653;28;20022;-68
2023/11/19 08:05:48;;;;;;;36.63;4.73;;;;;;;;;;4988716;28;20288;-68
2023/11/19 08:08:13;;;;;;;26.00;3.85;;;;;;;;;;4986991;28;20022;-69
2023/11/19 08:10:39;;;;;;;25.60;4.13;;;;;;;;;;4987573;28;20022;-69
2023/11/19 08:13:05;;;;;;;28.45;3.53;;;;;;;;;;4987378;28;20268;-69
2023/11/19 08:15:30;;;;;;;23.85;3.85;;;;;;;;;;4990148;28;20674;-68
2023/11/19 08:17:55;;;;;;;27.75;3.95;;;;;;;;;;4988118;28;20058;-69
2023/11/19 08:20:20;;;;;;;22.87;2.37;;;;;;;;;;4987110;28;20016;-68
2023/11/19 08:22:45;;;;;;;27.90;4.13;;;;;;;;;;4987997;28;20282;-69
2023/11/19 08:25:10;;;;;;;20.63;4.73;;;;;;;;;;4989000;28;20023;-68
2023/11/19 08:27:36;;;;;;;21.77;4.10;;;;;;;;;;4985193;28;20276;-69
2023/11/19 08:30:01;;;;;;;23.10;3.30;;;;;;;;;;4984439;28;20265;-68
2023/11/19 08:32:26;;;;;;;18.00;3.37;;;;;;;;;;4987448;28;20370;-68
2023/11/19 08:34:52;;;;;;;27.33;4.05;;;;;;;;;;4987498;28;20266;-69
2023/11/19 08:37:21;;;;;;;25.33;4.93;;;;;;;;;;4987572;28;20046;-69
2023/11/19 08:39:47;;;;;;;17.45;3.05;;;;;;;;;;4987878;28;20105;-68
2023/11/19 08:42:12;;;;;;;26.23;3.28;;;;;;;;;;4988846;28;20117;-69
2023/11/19 08:44:37;;;;;;;23.33;4.20;;;;;;;;;;4989293;28;20014;-68
2023/11/19 08:47:03;;;;;;;25.15;3.40;;;;;;;;;;4985874;28;20026;-68
2023/11/19 08:49:28;;;;;;;35.08;4.72;;;;;;;;;;4988827;28;20026;-68
2023/11/19 08:51:53;;;;;;;32.17;4.53;;;;;;;;;;4989239;28;20026;-68
2023/11/19 08:54:20;;;;;;;23.47;4.37;;;;;;;;;;4990116;28;20032;-69
2023/11/19 08:56:45;;;;;;;20.30;3.55;;;;;;;;;;4990547;28;20014;-68
2023/11/19 08:59:10;;;;;;;24.70;4.30;;;;;;;;;;4986364;28;20041;-68
2023/11/19 09:01:36;;;;;;;24.80;3.53;;;;;;;;;;4989109;28;20300;-68
2023/11/19 09:04:01;;;;;;;26.75;3.17;;;;;;;;;;4986554;28;20053;-68
2023/11/19 09:06:27;;;;;;;24.33;4.65;;;;;;;;;;4989682;28;20061;-69
2023/11/19 09:08:52;;;;;;;27.63;4.22;;;;;;;;;;4990194;28;20007;-69
2023/11/19 09:11:17;;;;;;;25.10;3.70;;;;;;;;;;4991578;28;20440;-68
2023/11/19 09:13:43;;;;;;;23.07;2.93;;;;;;;;;;4981199;28;20091;-69
2023/11/19 09:16:08;;;;;;;25.90;4.38;;;;;;;;;;4974135;28;20038;-69
2023/11/19 09:18:34;;;;;;;29.63;3.70;;;;;;;;;;4972419;28;20026;-69
2023/11/19 09:20:59;;;;;;;23.25;4.43;;;;;;;;;;4989009;28;20022;-68
2023/11/19 09:23:25;;;;;;;24.13;3.90;;;;;;;;;;4987349;28;20026;-69
2023/11/19 09:25:50;;;;;;;33.35;4.47;;;;;;;;;;4982527;28;20022;-69
2023/11/19 09:28:15;;;;;;;25.73;3.72;;;;;;;;;;4985226;28;20092;-68
2023/11/19 09:30:41;;;;;;;16.13;3.03;;;;;;;;;;4979063;28;20497;-68
2023/11/19 09:33:06;;;;;;;28.85;4.93;;;;;;;;;;4972584;28;20049;-68
2023/11/19 09:35:31;;;;;;;22.53;2.80;;;;;;;;;;4984545;28;20102;-68
2023/11/19 09:37:56;;;;;;;22.30;3.03;;;;;;;;;;4990039;28;20261;-68
2023/11/19 09:40:22;;;;;;;26.70;3.50;;;;;;;;;;4989593;28;20022;-68
2023/11/19 09:42:47;;;;;;;31.90;4.95;;;;;;;;;;4974338;28;20096;-68
2023/11/19 09:45:14;;;;;;;24.63;4.18;;;;;;;;;;4981831;28;20083;-68
2023/11/19 09:47:40;;;;;;;34.60;4.47;;;;;;;;;;4982929;28;20023;-68
2023/11/19 09:50:05;;;;;;;23.02;3.08;;;;;;;;;;4979382;28;20049;-68
2023/11/19 09:52:30;;;;;;;22.75;3.17;;;;;;;;;;4987993;28;20018;-68
2023/11/19 09:54:56;;;;;;;26.48;4.97;;;;;;;;;;4980019;28;20035;-68
2023/11/19 09:57:21;;;;;;;29.43;4.30;;;;;;;;;;4978261;28;20709;-68
2023/11/19 09:59:47;;;;;;;34.13;4.28;;;;;;;;;;4989118;28;20292;-67
2023/11/19 10:02:12;;;;;;;23.63;3.55;;;;;;;;;;4980072;28;20027;-67
2023/11/19 10:04:38;;;;;;;38.60;4.57;;;;;;;;;;4982905;28;20007;-68
2023/11/19 10:07:03;;;;;;;29.35;4.45;;;;;;;;;;4987802;28;20767;-68
2023/11/19 10:09:29;;;;;;;34.20;5.78;;;;;;;;;;4972316;28;20101;-68
2023/11/19 10:11:54;;;;;;;16.63;2.42;;;;;;;;;;4981104;28;20046;-68
2023/11/19 10:14:22;;;;;;;20.73;3.92;;;;;;;;;;4976106;28;20019;-68
2023/11/19 10:16:47;;;;;;;27.58;3.47;;;;;;;;;;4975553;28;20070;-68
2023/11/19 10:19:18;;;;;;;33.55;4.70;;;;;;;;;;4981732;28;20097;-68
2023/11/19 10:21:46;;;;;;;18.25;1.75;;;;;;;;;;4982496;28;20038;-68
2023/11/19 10:24:11;;;;;;;24.58;3.08;;;;;;;;;;4979662;28;20089;-68
2023/11/19 10:26:36;;;;;;;46.55;4.35;;;;;;;;;;4977819;28;20646;-68
2023/11/19 10:29:02;;;;;;;34.28;5.35;;;;;;;;;;4989304;28;20076;-68
2023/11/19 10:31:27;;;;;;;34.97;4.88;;;;;;;;;;4984838;28;20030;-67
2023/11/19 10:33:53;;;;;;;18.48;2.88;;;;;;;;;;4972340;28;20018;-68
2023/11/19 10:36:19;;;;;;;34.20;3.22;;;;;;;;;;4979716;28;20042;-68
2023/11/19 10:38:54;;;;;;;13.00;3.03;;;;;;;;;;4972151;28;20378;-68
2023/11/19 10:41:28;;;;;;;13.20;2.90;;;;;;;;;;4988768;28;20033;-68
2023/11/19 10:43:53;;;;;;;29.10;4.55;;;;;;;;;;4989453;28;20015;-68
2023/11/19 10:46:22;;;;;;;19.43;3.20;;;;;;;;;;4987618;28;20022;-68
2023/11/19 10:48:48;;;;;;;28.97;3.47;;;;;;;;;;4974902;28;20258;-68
2023/11/19 10:51:14;;;;;;;22.38;3.95;;;;;;;;;;4988231;28;20029;-68
2023/11/19 10:53:41;;;;;;;28.25;4.10;;;;;;;;;;4989613;28;20061;-68
2023/11/19 10:56:10;;;;;;;18.45;3.95;;;;;;;;;;4988100;28;20026;-67
2023/11/19 10:58:37;;;;;;;29.63;4.28;;;;;;;;;;4980113;28;20023;-67
2023/11/19 11:01:07;;;;;;;30.63;3.13;;;;;;;;;;4986984;28;20019;-68
2023/11/19 11:03:39;;;;;;;20.35;3.20;;;;;;;;;;4983756;28;20030;-68
2023/11/19 11:06:04;;;;;;;13.80;2.22;;;;;;;;;;4989196;28;20027;-68
2023/11/19 11:08:30;;;;;;;22.52;3.90;;;;;;;;;;4977836;28;20589;-67
2023/11/19 11:10:55;;;;;;;20.83;2.67;;;;;;;;;;4979926;28;20036;-68
2023/11/19 11:13:24;;;;;;;34.35;2.97;;;;;;;;;;4979580;28;20018;-68
2023/11/19 11:15:50;;;;;;;23.20;2.63;;;;;;;;;;4981612;28;20030;-68
2023/11/19 11:18:17;;;;;;;27.63;4.20;;;;;;;;;;4991899;28;20033;-68
2023/11/19 11:20:43;;;;;;;27.88;3.63;;;;;;;;;;4992674;28;20018;-68
2023/11/19 11:23:21;;;;;;;21.38;4.00;;;;;;;;;;4984867;28;20041;-67
2023/11/19 11:25:58;;;;;;;25.95;3.28;;;;;;;;;;4982177;28;20022;-68
2023/11/19 11:28:33;;;;;;;25.77;3.88;;;;;;;;;;4990948;28;20010;-69
2023/11/19 11:31:09;;;;;;;12.20;2.33;;;;;;;;;;4992460;28;20087;-68
2023/11/19 11:33:41;;;;;;;33.35;3.47;;;;;;;;;;4976463;28;20054;-67
2023/11/19 11:36:20;;;;;;;17.05;3.75;;;;;;;;;;4984100;28;20105;-68
2023/11/19 11:38:47;;;;;;;28.70;2.72;;;;;;;;;;4973522;28;20022;-67
2023/11/19 11:41:22;;;;;;;31.50;3.47;;;;;;;;;;4977573;28;20027;-68
2023/11/19 11:43:50;;;;;;;26.17;4.32;;;;;;;;;;4988565;28;20089;-68
2023/11/19 11:46:33;;;;;;;28.83;3.97;;;;;;;;;;4991881;28;20014;-68
2023/11/19 11:49:08;;;;;;;15.93;3.58;;;;;;;;;;4990252;28;20019;-68
2023/11/19 11:51:45;;;;;;;12.57;2.00;;;;;;;;;;4982726;28;20026;-68
2023/11/19 11:54:11;;;;;;;23.00;3.72;;;;;;;;;;4990608;28;20030;-67
2023/11/19 11:56:37;;;;;;;22.90;4.38;;;;;;;;;;4989782;28;20026;-69
2023/11/19 11:59:02;;;;;;;21.08;3.78;;;;;;;;;;4989513;28;20393;-68
2023/11/19 12:01:29;;;;;;;22.90;3.73;;;;;;;;;;4976831;28;20034;-68
2023/11/19 12:03:55;;;;;;;20.58;2.95;;;;;;;;;;4988554;28;20254;-68
2023/11/19 12:06:21;;;;;;;16.05;2.42;;;;;;;;;;4989729;28;20073;-68
2023/11/19 12:08:46;;;;;;;16.30;3.40;;;;;;;;;;4990918;28;20058;-68
2023/11/19 12:11:11;;;;;;;10.03;1.80;;;;;;;;;;4979214;28;20494;-67
2023/11/19 12:13:55;;;;;;;23.85;3.28;;;;;;;;;;4986624;28;20265;-68
2023/11/19 12:16:21;;;;;;;20.95;3.95;;;;;;;;;;4989321;28;20113;-68
2023/11/19 12:18:47;;;;;;;28.40;3.15;;;;;;;;;;4990677;28;20164;-67
2023/11/19 12:21:26;;;;;;;15.10;2.88;;;;;;;;;;4979088;28;20030;-68
2023/11/19 12:23:53;;;;;;;25.75;3.55;;;;;;;;;;4991276;28;20021;-68
2023/11/19 12:26:37;;;;;;;22.50;2.80;;;;;;;;;;4981858;28;20427;-68
2023/11/19 12:29:06;;;;;;;12.98;2.38;;;;;;;;;;4983187;28;20031;-68
2023/11/19 12:31:31;;;;;;;8.05;1.58;;;;;;;;;;4991069;28;20014;-68
2023/11/19 12:33:56;;;;;;;12.70;2.47;;;;;;;;;;4990257;28;20040;-68
2023/11/19 12:36:21;;;;;;;9.20;1.93;;;;;;;;;;4978790;28;20022;-68
2023/11/19 12:38:47;;;;;;;20.63;3.05;;;;;;;;;;4986600;28;20320;-68
2023/11/19 12:41:13;;;;;;;21.75;2.75;;;;;;;;;;4990832;28;20065;-68
2023/11/19 12:43:38;;;;;;;19.25;3.05;;;;;;;;;;4986696;28;20026;-67
2023/11/19 12:46:16;;;;;;;20.10;2.88;;;;;;;;;;4978100;28;20022;-68
2023/11/19 12:48:41;;;;;;;21.52;3.63;;;;;;;;;;4983204;28;20069;-68
2023/11/19 12:51:07;;;;;;;14.80;3.15;;;;;;;;;;4990410;28;20481;-67
2023/11/19 12:53:47;;;;;;;21.55;3.53;;;;;;;;;;4987732;28;20477;-66
2023/11/19 12:56:12;;;;;;;15.80;2.65;;;;;;;;;;4983333;28;20030;-67
2023/11/19 12:58:38;;;;;;;20.58;3.28;;;;;;;;;;4977929;28;20093;-69
2023/11/19 13:01:04;;;;;;;24.92;2.70;;;;;;;;;;4988650;28;20022;-69
2023/11/19 13:03:33;;;;;;;18.48;2.88;;;;;;;;;;4987547;28;20026;-67
2023/11/19 13:06:03;;;;;;;22.90;2.58;;;;;;;;;;4977629;28;20533;-67
2023/11/19 13:08:29;;;;;;;7.45;1.65;;;;;;;;;;4982946;28;20102;-67
2023/11/19 13:10:54;;;;;;;13.95;3.58;;;;;;;;;;4981931;28;20105;-67
2023/11/19 13:13:19;;;;;;;19.63;2.53;;;;;;;;;;4988402;28;20098;-67
2023/11/19 13:15:45;;;;;;;13.50;2.95;;;;;;;;;;4977047;28;20027;-66
2023/11/19 13:18:11;;;;;;;9.70;2.08;;;;;;;;;;4985962;28;20018;-67
2023/11/19 13:20:36;;;;;;;21.30;2.53;;;;;;;;;;4992592;28;20042;-69
2023/11/19 13:23:02;;;;;;;15.00;3.05;;;;;;;;;;4989658;28;20022;-68
2023/11/19 13:25:27;;;;;;;5.70;2.60;;;;;;;;;;4989519;28;20481;-69
2023/11/19 13:27:53;;;;;;;18.40;2.55;;;;;;;;;;4988870;28;20105;-67
2023/11/19 13:30:19;;;;;;;16.80;3.38;;;;;;;;;;4989224;28;20019;-67
2023/11/19 13:32:47;;;;;;;14.43;2.92;;;;;;;;;;4983861;28;20092;-68
2023/11/19 13:35:12;;;;;;;19.88;2.33;;;;;;;;;;4989609;28;20027;-69
2023/11/19 13:37:38;;;;;;;25.60;4.22;;;;;;;;;;4985842;28;20018;-68
2023/11/19 13:40:03;;;;;;;27.85;4.10;;;;;;;;;;4982244;28;20033;-67
2023/11/19 13:42:28;;;;;;;22.55;2.33;;;;;;;;;;4988787;28;20065;-68
2023/11/19 13:44:55;;;;;;;21.20;2.83;;;;;;;;;;4979857;28;20023;-68
2023/11/19 13:47:20;;;;;;;19.23;2.47;;;;;;;;;;4989578;28;20262;-68
2023/11/19 13:49:45;;;;;;;28.75;3.33;;;;;;;;;;4989649;28;20127;-68
2023/11/19 13:52:11;;;;;;;15.73;2.42;;;;;;;;;;4989148;28;20018;-69
2023/11/19 13:54:37;;;;;;;30.60;4.32;;;;;;;;;;4987028;28;20113;-72
2023/11/19 13:57:03;;;;;;;21.85;3.00;;;;;;;;;;4978486;28;20026;-67
2023/11/19 13:59:29;;;;;;;26.10;3.08;;;;;;;;;;4987860;28;20552;-67
2023/11/19 14:01:54;;;;;;;13.15;2.28;;;;;;;;;;4986813;28;20102;-67
2023/11/19 14:04:19;;;;;;;14.88;2.47;;;;;;;;;;4988658;28;20038;-67
2023/11/19 14:06:45;;;;;;;17.87;3.43;;;;;;;;;;4987697;28;20441;-67
2023/11/19 14:09:10;;;;;;;20.08;2.80;;;;;;;;;;4986477;28;20270;-67
2023/11/19 14:11:35;;;;;;;37.63;3.80;;;;;;;;;;4977491;28;20031;-67
2023/11/19 14:14:00;;;;;;;20.83;2.10;;;;;;;;;;4980527;28;20640;-67
2023/11/19 14:16:26;;;;;;;20.07;3.73;;;;;;;;;;4988371;28;20034;-67
2023/11/19 14:18:52;;;;;;;26.33;3.08;;;;;;;;;;4984361;28;20323;-67
2023/11/19 14:21:17;;;;;;;20.73;2.78;;;;;;;;;;4980811;28;20029;-67
2023/11/19 14:23:42;;;;;;;24.00;3.45;;;;;;;;;;4982612;28;20089;-67
2023/11/19 14:26:08;;;;;;;19.03;3.37;;;;;;;;;;4981613;28;20022;-67
2023/11/19 14:28:33;;;;;;;20.15;4.57;;;;;;;;;;4980603;28;20369;-67
2023/11/19 14:30:58;;;;;;;28.58;3.08;;;;;;;;;;4981317;28;20069;-67